sensor_id;sensor_type;location;lat;lon;timestamp;temperature;humidity
19864;DHT22;10094;48.820;9.226;2023-07-31T00:04:28;17.40;99.90
19864;DHT22;10094;48.820;9.226;2023-07-31T00:11:11;17.30;99.90
19864;DHT22;10094;48.820;9.226;2023-07-31T00:17:54;17.10;99.90
19864;DHT22;10094;48.820;9.226;2023-07-31T00:24:37;17.00;99.90
19864;DHT22;10094;48.820;9.226;2023-07-31T00:31:20;17.10;99.90
19864;DHT22;10094;48.820;9.226;2023-07-31T00:38:06;17.00;99.90
19864;DHT22;10094;48.820;9.226;2023-07-31T00:44:51;16.90;99.90
19864;DHT22;10094;48.820;9.226;2023-07-31T00:51:38;16.90;99.90
19864;DHT22;10094;48.820;9.226;2023-07-31T00:58:23;16.90;99.90
19864;DHT22;10094;48.820;9.226;2023-07-31T01:05:08;16.80;99.90
19864;DHT22;10094;48.820;9.226;2023-07-31T01:12:02;16.70;99.90
19864;DHT22;10094;48.820;9.226;2023-07-31T01:18:48;16.40;99.90
19864;DHT22;10094;48.820;9.226;2023-07-31T01:25:49;16.30;99.90
19864;DHT22;10094;48.820;9.226;2023-07-31T01:32:35;16.10;99.90
19864;DHT22;10094;48.820;9.226;2023-07-31T01:39:21;16.10;99.90
19864;DHT22;10094;48.820;9.226;2023-07-31T01:46:06;16.10;99.90
19864;DHT22;10094;48.820;9.226;2023-07-31T01:52:53;16.20;99.90
19864;DHT22;10094;48.820;9.226;2023-07-31T01:59:42;16.20;99.90
19864;DHT22;10094;48.820;9.226;2023-07-31T02:06:27;16.20;99.90
19864;DHT22;10094;48.820;9.226;2023-07-31T02:13:14;16.10;99.90
19864;DHT22;10094;48.820;9.226;2023-07-31T02:19:59;16.00;99.90
19864;DHT22;10094;48.820;9.226;2023-07-31T02:26:46;16.10;99.90
19864;DHT22;10094;48.820;9.226;2023-07-31T02:33:30;16.10;99.90
19864;DHT22;10094;48.820;9.226;2023-07-31T02:40:15;16.10;99.90
19864;DHT22;10094;48.820;9.226;2023-07-31T02:47:01;16.10;99.90
19864;DHT22;10094;48.820;9.226;2023-07-31T02:53:50;16.00;99.90
19864;DHT22;10094;48.820;9.226;2023-07-31T03:00:41;16.30;99.90
19864;DHT22;10094;48.820;9.226;2023-07-31T03:08:18;16.10;99.90
19864;DHT22;10094;48.820;9.226;2023-07-31T03:15:10;16.10;99.90
19864;DHT22;10094;48.820;9.226;2023-07-31T03:21:55;16.10;99.90
19864;DHT22;10094;48.820;9.226;2023-07-31T03:28:39;16.10;99.90
19864;DHT22;10094;48.820;9.226;2023-07-31T03:35:24;16.10;99.90
19864;DHT22;10094;48.820;9.226;2023-07-31T03:42:11;16.10;99.90
19864;DHT22;10094;48.820;9.226;2023-07-31T03:48:57;16.20;99.90
19864;DHT22;10094;48.820;9.226;2023-07-31T03:56:15;16.10;99.90
19864;DHT22;10094;48.820;9.226;2023-07-31T04:03:05;16.10;99.90
19864;DHT22;10094;48.820;9.226;2023-07-31T04:09:50;16.10;99.90
19864;DHT22;10094;48.820;9.226;2023-07-31T04:16:40;16.30;99.90
19864;DHT22;10094;48.820;9.226;2023-07-31T04:23:30;16.40;99.90
19864;DHT22;10094;48.820;9.226;2023-07-31T04:30:30;16.70;99.90
19864;DHT22;10094;48.820;9.226;2023-07-31T04:37:15;17.00;99.90
19864;DHT22;10094;48.820;9.226;2023-07-31T04:44:05;17.20;99.90
19864;DHT22;10094;48.820;9.226;2023-07-31T04:50:49;17.50;99.90
19864;DHT22;10094;48.820;9.226;2023-07-31T04:57:34;17.90;99.90
19864;DHT22;10094;48.820;9.226;2023-07-31T05:04:19;18.00;99.90
19864;DHT22;10094;48.820;9.226;2023-07-31T05:11:04;18.00;99.90
19864;DHT22;10094;48.820;9.226;2023-07-31T05:17:49;18.00;99.90
19864;DHT22;10094;48.820;9.226;2023-07-31T05:24:34;18.10;99.90
19864;DHT22;10094;48.820;9.226;2023-07-31T05:31:24;18.40;99.90
19864;DHT22;10094;48.820;9.226;2023-07-31T05:38:09;18.90;99.90
19864;DHT22;10094;48.820;9.226;2023-07-31T05:44:54;19.60;99.90
19864;DHT22;10094;48.820;9.226;2023-07-31T05:51:39;20.40;99.90
19864;DHT22;10094;48.820;9.226;2023-07-31T05:58:29;20.40;99.90
19864;DHT22;10094;48.820;9.226;2023-07-31T06:05:17;20.20;99.90
19864;DHT22;10094;48.820;9.226;2023-07-31T06:12:02;20.40;99.90
19864;DHT22;10094;48.820;9.226;2023-07-31T06:18:52;20.50;99.90
19864;DHT22;10094;48.820;9.226;2023-07-31T06:25:44;22.70;99.90
19864;DHT22;10094;48.820;9.226;2023-07-31T06:32:29;25.00;93.50
19864;DHT22;10094;48.820;9.226;2023-07-31T06:39:14;24.80;93.90
19864;DHT22;10094;48.820;9.226;2023-07-31T06:46:05;26.00;91.60
19864;DHT22;10094;48.820;9.226;2023-07-31T06:52:51;24.90;92.30
19864;DHT22;10094;48.820;9.226;2023-07-31T06:59:36;26.20;91.80
19864;DHT22;10094;48.820;9.226;2023-07-31T07:06:22;28.10;87.00
19864;DHT22;10094;48.820;9.226;2023-07-31T07:13:06;27.60;86.80
19864;DHT22;10094;48.820;9.226;2023-07-31T07:19:59;29.00;84.80
19864;DHT22;10094;48.820;9.226;2023-07-31T07:26:44;28.10;83.90
19864;DHT22;10094;48.820;9.226;2023-07-31T07:33:27;27.10;85.60
19864;DHT22;10094;48.820;9.226;2023-07-31T07:40:16;27.00;85.30
19864;DHT22;10094;48.820;9.226;2023-07-31T07:47:07;26.40;86.00
19864;DHT22;10094;48.820;9.226;2023-07-31T07:53:55;25.90;87.60
19864;DHT22;10094;48.820;9.226;2023-07-31T08:00:51;28.40;83.80
19864;DHT22;10094;48.820;9.226;2023-07-31T08:07:36;29.80;81.20
19864;DHT22;10094;48.820;9.226;2023-07-31T08:14:22;32.30;77.70
19864;DHT22;10094;48.820;9.226;2023-07-31T08:21:06;32.60;75.80
19864;DHT22;10094;48.820;9.226;2023-07-31T08:27:51;33.30;72.90
19864;DHT22;10094;48.820;9.226;2023-07-31T08:34:38;32.90;73.10
19864;DHT22;10094;48.820;9.226;2023-07-31T08:41:22;33.40;71.40
19864;DHT22;10094;48.820;9.226;2023-07-31T08:48:05;31.60;71.60
19864;DHT22;10094;48.820;9.226;2023-07-31T08:54:48;30.30;72.60
19864;DHT22;10094;48.820;9.226;2023-07-31T09:01:36;29.60;72.90
19864;DHT22;10094;48.820;9.226;2023-07-31T09:08:21;29.80;73.10
19864;DHT22;10094;48.820;9.226;2023-07-31T09:15:04;29.20;75.20
19864;DHT22;10094;48.820;9.226;2023-07-31T09:21:48;31.40;73.20
19864;DHT22;10094;48.820;9.226;2023-07-31T09:28:31;31.60;71.90
19864;DHT22;10094;48.820;9.226;2023-07-31T09:35:21;31.10;72.30
19864;DHT22;10094;48.820;9.226;2023-07-31T09:42:04;31.00;72.20
19864;DHT22;10094;48.820;9.226;2023-07-31T09:48:47;28.60;74.50
19864;DHT22;10094;48.820;9.226;2023-07-31T09:55:30;27.90;76.70
19864;DHT22;10094;48.820;9.226;2023-07-31T10:02:17;27.30;76.70
19864;DHT22;10094;48.820;9.226;2023-07-31T10:09:00;27.10;78.50
19864;DHT22;10094;48.820;9.226;2023-07-31T10:15:44;26.10;79.50
19864;DHT22;10094;48.820;9.226;2023-07-31T10:22:29;26.60;80.50
19864;DHT22;10094;48.820;9.226;2023-07-31T10:29:13;26.20;80.10
19864;DHT22;10094;48.820;9.226;2023-07-31T10:36:18;27.10;79.40
19864;DHT22;10094;48.820;9.226;2023-07-31T10:43:01;27.20;79.10
19864;DHT22;10094;48.820;9.226;2023-07-31T10:49:45;26.20;80.80
19864;DHT22;10094;48.820;9.226;2023-07-31T10:56:37;26.60;81.50
19864;DHT22;10094;48.820;9.226;2023-07-31T11:03:26;27.30;79.10
19864;DHT22;10094;48.820;9.226;2023-07-31T11:10:09;28.00;78.40
19864;DHT22;10094;48.820;9.226;2023-07-31T11:16:52;28.30;77.50
19864;DHT22;10094;48.820;9.226;2023-07-31T11:23:37;27.60;78.00
19864;DHT22;10094;48.820;9.226;2023-07-31T11:30:21;28.10;76.90
19864;DHT22;10094;48.820;9.226;2023-07-31T11:37:03;28.70;76.20
19864;DHT22;10094;48.820;9.226;2023-07-31T11:43:46;28.80;75.90
19864;DHT22;10094;48.820;9.226;2023-07-31T11:50:33;28.00;77.40
19864;DHT22;10094;48.820;9.226;2023-07-31T11:57:19;26.10;80.50
19864;DHT22;10094;48.820;9.226;2023-07-31T12:04:02;26.80;80.90
19864;DHT22;10094;48.820;9.226;2023-07-31T12:10:45;27.60;80.50
19864;DHT22;10094;48.820;9.226;2023-07-31T12:17:30;27.90;79.20
19864;DHT22;10094;48.820;9.226;2023-07-31T12:24:12;27.30;79.00
19864;DHT22;10094;48.820;9.226;2023-07-31T12:31:00;27.40;80.60
19864;DHT22;10094;48.820;9.226;2023-07-31T12:37:43;26.90;79.90
19864;DHT22;10094;48.820;9.226;2023-07-31T12:44:25;27.00;80.80
19864;DHT22;10094;48.820;9.226;2023-07-31T12:51:08;26.90;82.10
19864;DHT22;10094;48.820;9.226;2023-07-31T12:57:51;26.90;80.50
19864;DHT22;10094;48.820;9.226;2023-07-31T13:04:36;26.00;80.90
19864;DHT22;10094;48.820;9.226;2023-07-31T13:11:21;26.00;82.30
19864;DHT22;10094;48.820;9.226;2023-07-31T13:18:04;26.10;82.30
19864;DHT22;10094;48.820;9.226;2023-07-31T13:24:47;25.80;83.80
19864;DHT22;10094;48.820;9.226;2023-07-31T13:31:30;25.90;83.70
19864;DHT22;10094;48.820;9.226;2023-07-31T13:38:13;26.20;83.80
19864;DHT22;10094;48.820;9.226;2023-07-31T13:44:56;26.50;82.70
19864;DHT22;10094;48.820;9.226;2023-07-31T13:51:39;27.00;82.60
19864;DHT22;10094;48.820;9.226;2023-07-31T13:58:22;27.40;80.60
19864;DHT22;10094;48.820;9.226;2023-07-31T14:05:05;27.30;81.20
19864;DHT22;10094;48.820;9.226;2023-07-31T14:11:50;26.90;82.00
19864;DHT22;10094;48.820;9.226;2023-07-31T14:18:33;27.20;81.90
19864;DHT22;10094;48.820;9.226;2023-07-31T14:25:16;27.50;81.70
19864;DHT22;10094;48.820;9.226;2023-07-31T14:31:59;27.60;80.60
19864;DHT22;10094;48.820;9.226;2023-07-31T14:38:43;27.80;81.20
19864;DHT22;10094;48.820;9.226;2023-07-31T14:45:25;27.40;81.80
19864;DHT22;10094;48.820;9.226;2023-07-31T14:52:08;27.80;81.20
19864;DHT22;10094;48.820;9.226;2023-07-31T14:58:51;27.70;82.50
19864;DHT22;10094;48.820;9.226;2023-07-31T15:05:34;27.60;81.40
19864;DHT22;10094;48.820;9.226;2023-07-31T15:12:17;27.60;82.30
19864;DHT22;10094;48.820;9.226;2023-07-31T15:18:59;27.70;81.00
19864;DHT22;10094;48.820;9.226;2023-07-31T15:25:42;28.00;80.90
19864;DHT22;10094;48.820;9.226;2023-07-31T15:32:25;28.00;79.80
19864;DHT22;10094;48.820;9.226;2023-07-31T15:39:08;27.80;80.90
19864;DHT22;10094;48.820;9.226;2023-07-31T15:45:50;27.60;81.00
19864;DHT22;10094;48.820;9.226;2023-07-31T15:52:33;27.30;81.00
19864;DHT22;10094;48.820;9.226;2023-07-31T15:59:16;27.20;81.30
19864;DHT22;10094;48.820;9.226;2023-07-31T16:05:58;27.10;80.50
19864;DHT22;10094;48.820;9.226;2023-07-31T16:12:41;27.00;81.30
19864;DHT22;10094;48.820;9.226;2023-07-31T16:19:24;27.10;81.60
19864;DHT22;10094;48.820;9.226;2023-07-31T16:26:08;27.20;82.10
19864;DHT22;10094;48.820;9.226;2023-07-31T16:32:52;27.00;83.50
19864;DHT22;10094;48.820;9.226;2023-07-31T16:39:34;26.40;84.30
19864;DHT22;10094;48.820;9.226;2023-07-31T16:46:17;26.30;84.70
19864;DHT22;10094;48.820;9.226;2023-07-31T16:53:00;26.50;84.70
19864;DHT22;10094;48.820;9.226;2023-07-31T16:59:43;26.30;85.90
19864;DHT22;10094;48.820;9.226;2023-07-31T17:06:26;26.00;86.50
19864;DHT22;10094;48.820;9.226;2023-07-31T17:13:10;25.80;87.30
19864;DHT22;10094;48.820;9.226;2023-07-31T17:19:53;25.60;87.80
19864;DHT22;10094;48.820;9.226;2023-07-31T17:26:35;25.40;89.40
19864;DHT22;10094;48.820;9.226;2023-07-31T17:33:18;25.10;91.70
19864;DHT22;10094;48.820;9.226;2023-07-31T17:40:01;25.00;91.40
19864;DHT22;10094;48.820;9.226;2023-07-31T17:46:43;24.70;91.90
19864;DHT22;10094;48.820;9.226;2023-07-31T17:53:26;24.80;93.00
19864;DHT22;10094;48.820;9.226;2023-07-31T18:00:09;24.70;92.70
19864;DHT22;10094;48.820;9.226;2023-07-31T18:06:52;24.70;92.80
19864;DHT22;10094;48.820;9.226;2023-07-31T18:13:34;24.70;92.90
19864;DHT22;10094;48.820;9.226;2023-07-31T18:20:17;24.60;93.80
19864;DHT22;10094;48.820;9.226;2023-07-31T18:27:02;24.40;95.10
19864;DHT22;10094;48.820;9.226;2023-07-31T18:33:44;24.30;96.30
19864;DHT22;10094;48.820;9.226;2023-07-31T18:40:27;24.30;95.70
19864;DHT22;10094;48.820;9.226;2023-07-31T18:47:09;24.20;95.50
19864;DHT22;10094;48.820;9.226;2023-07-31T18:53:53;24.10;96.40
19864;DHT22;10094;48.820;9.226;2023-07-31T19:00:36;24.00;99.90
19864;DHT22;10094;48.820;9.226;2023-07-31T19:07:18;23.60;99.90
19864;DHT22;10094;48.820;9.226;2023-07-31T19:14:01;23.10;99.90
19864;DHT22;10094;48.820;9.226;2023-07-31T19:20:45;22.60;99.90
19864;DHT22;10094;48.820;9.226;2023-07-31T19:27:28;22.30;99.90
19864;DHT22;10094;48.820;9.226;2023-07-31T19:34:11;21.90;99.90
19864;DHT22;10094;48.820;9.226;2023-07-31T19:40:54;21.60;99.90
19864;DHT22;10094;48.820;9.226;2023-07-31T19:47:36;21.40;99.90
19864;DHT22;10094;48.820;9.226;2023-07-31T19:54:19;21.20;99.90
19864;DHT22;10094;48.820;9.226;2023-07-31T20:01:01;21.20;99.90
19864;DHT22;10094;48.820;9.226;2023-07-31T20:07:44;20.90;99.90
19864;DHT22;10094;48.820;9.226;2023-07-31T20:14:27;20.80;99.90
19864;DHT22;10094;48.820;9.226;2023-07-31T20:21:10;20.70;99.90
19864;DHT22;10094;48.820;9.226;2023-07-31T20:27:53;20.80;99.90
19864;DHT22;10094;48.820;9.226;2023-07-31T20:34:35;20.80;99.90
19864;DHT22;10094;48.820;9.226;2023-07-31T20:41:18;20.70;99.90
19864;DHT22;10094;48.820;9.226;2023-07-31T20:48:02;20.70;99.90
19864;DHT22;10094;48.820;9.226;2023-07-31T20:54:45;20.60;99.90
19864;DHT22;10094;48.820;9.226;2023-07-31T21:01:28;20.30;99.90
19864;DHT22;10094;48.820;9.226;2023-07-31T21:08:12;20.30;99.90
19864;DHT22;10094;48.820;9.226;2023-07-31T21:14:54;20.30;99.90
19864;DHT22;10094;48.820;9.226;2023-07-31T21:21:37;20.40;99.90
19864;DHT22;10094;48.820;9.226;2023-07-31T21:28:20;20.30;99.90
19864;DHT22;10094;48.820;9.226;2023-07-31T21:35:03;20.30;99.90
19864;DHT22;10094;48.820;9.226;2023-07-31T21:41:45;19.90;99.90
19864;DHT22;10094;48.820;9.226;2023-07-31T21:48:28;19.80;99.90
19864;DHT22;10094;48.820;9.226;2023-07-31T21:55:11;19.70;99.90
19864;DHT22;10094;48.820;9.226;2023-07-31T22:01:54;19.50;99.90
19864;DHT22;10094;48.820;9.226;2023-07-31T22:08:37;19.50;99.90
19864;DHT22;10094;48.820;9.226;2023-07-31T22:15:20;19.50;99.90
19864;DHT22;10094;48.820;9.226;2023-07-31T22:22:04;19.50;99.90
19864;DHT22;10094;48.820;9.226;2023-07-31T22:28:47;19.40;99.90
19864;DHT22;10094;48.820;9.226;2023-07-31T22:35:30;19.30;99.90
19864;DHT22;10094;48.820;9.226;2023-07-31T22:42:13;19.30;99.90
19864;DHT22;10094;48.820;9.226;2023-07-31T22:48:55;19.30;99.90
19864;DHT22;10094;48.820;9.226;2023-07-31T22:55:39;19.30;99.90
19864;DHT22;10094;48.820;9.226;2023-07-31T23:02:22;19.30;99.90
19864;DHT22;10094;48.820;9.226;2023-07-31T23:09:04;19.40;99.90
19864;DHT22;10094;48.820;9.226;2023-07-31T23:15:47;19.50;99.90
19864;DHT22;10094;48.820;9.226;2023-07-31T23:22:30;19.70;99.90
19864;DHT22;10094;48.820;9.226;2023-07-31T23:29:13;19.70;99.90
19864;DHT22;10094;48.820;9.226;2023-07-31T23:35:55;19.60;99.90
19864;DHT22;10094;48.820;9.226;2023-07-31T23:42:38;19.80;99.90
19864;DHT22;10094;48.820;9.226;2023-07-31T23:49:21;19.90;99.90
19864;DHT22;10094;48.820;9.226;2023-07-31T23:56:03;20.00;99.90
